DLH6AW EDDF-LIMC
Flight info
| Callsign | DLH6AW |
|---|---|
| Flight time | 0h 55m |
| Altitude | 31000 |
| Route | ANEKI2L ANEKI Y163 HERBI/N0428F330 Y163 NATOR DCT DITON DCT BASGO Z424 RIXUV |
| Aircraft | A321/M-SDE2E3FGIJ1LORWXYZ/HB1 |
Departure
| Time | 2026-05-06 15:26 |
|---|---|
| Airport | Frankfurt Main Airport (EDDF) |
Arrival
| Time | 2026-05-06 16:22 |
|---|---|
| Airport | Milan Malpensa International Airport (LIMC) |
| Time | Latitude | Longitude | Altitude | Speed | Heading |
|---|---|---|---|---|---|
| 2026-05-06 14:53 | 50.04561 | 8.56306 | 357 ft | 0 kts | 40° |
| 2026-05-06 15:16 | 50.04548 | 8.56291 | 364 ft | 4 kts | 9° |
| 2026-05-06 15:17 | 50.04524 | 8.56295 | 361 ft | 2 kts | 340° |
| 2026-05-06 15:17 | 50.04505 | 8.56312 | 361 ft | 4 kts | 285° |
| 2026-05-06 15:17 | 50.04508 | 8.56349 | 360 ft | 4 kts | 249° |
| 2026-05-06 15:17 | 50.04514 | 8.56373 | 365 ft | 4 kts | 249° |
| 2026-05-06 15:18 | 50.04516 | 8.56385 | 359 ft | 0 kts | 249° |
| 2026-05-06 15:20 | 50.04512 | 8.56366 | 361 ft | 5 kts | 249° |
| 2026-05-06 15:20 | 50.04490 | 8.56276 | 359 ft | 11 kts | 249° |
| 2026-05-06 15:20 | 50.04460 | 8.56151 | 358 ft | 13 kts | 249° |
| 2026-05-06 15:21 | 50.04407 | 8.56038 | 359 ft | 13 kts | 194° |
| 2026-05-06 15:21 | 50.04314 | 8.56070 | 357 ft | 11 kts | 169° |
| 2026-05-06 15:21 | 50.04253 | 8.56000 | 359 ft | 13 kts | 248° |
| 2026-05-06 15:21 | 50.04219 | 8.55858 | 360 ft | 15 kts | 251° |
| 2026-05-06 15:22 | 50.04180 | 8.55689 | 360 ft | 18 kts | 249° |
| 2026-05-06 15:22 | 50.04134 | 8.55499 | 359 ft | 20 kts | 250° |
| 2026-05-06 15:22 | 50.04086 | 8.55299 | 355 ft | 20 kts | 249° |
| 2026-05-06 15:22 | 50.04039 | 8.55100 | 360 ft | 20 kts | 250° |
| 2026-05-06 15:23 | 50.03988 | 8.54889 | 355 ft | 22 kts | 249° |
| 2026-05-06 15:23 | 50.03933 | 8.54656 | 357 ft | 24 kts | 249° |
| 2026-05-06 15:23 | 50.03876 | 8.54423 | 354 ft | 20 kts | 247° |
| 2026-05-06 15:23 | 50.03813 | 8.54257 | 345 ft | 17 kts | 242° |
| 2026-05-06 15:24 | 50.03767 | 8.54084 | 348 ft | 18 kts | 250° |
| 2026-05-06 15:24 | 50.03721 | 8.53890 | 353 ft | 20 kts | 249° |
| 2026-05-06 15:24 | 50.03670 | 8.53680 | 344 ft | 22 kts | 249° |
| 2026-05-06 15:24 | 50.03613 | 8.53454 | 338 ft | 23 kts | 250° |
| 2026-05-06 15:25 | 50.03557 | 8.53215 | 338 ft | 24 kts | 250° |
| 2026-05-06 15:25 | 50.03496 | 8.52968 | 336 ft | 24 kts | 248° |
| 2026-05-06 15:25 | 50.03442 | 8.52761 | 335 ft | 20 kts | 248° |
| 2026-05-06 15:25 | 50.03400 | 8.52616 | 332 ft | 10 kts | 230° |
| 2026-05-06 15:26 | 50.03356 | 8.52594 | 336 ft | 1 kts | 178° |
| 2026-05-06 15:26 | 50.03121 | 8.52595 | 336 ft | 83 kts | 180° |
| 2026-05-06 15:26 | 50.02226 | 8.52606 | 340 ft | 169 kts | 179° |
| 2026-05-06 15:26 | 50.00969 | 8.52620 | 1211 ft | 184 kts | 184° |
| 2026-05-06 15:27 | 49.99671 | 8.52665 | 1973 ft | 194 kts | 180° |
| 2026-05-06 15:27 | 49.98256 | 8.52760 | 2324 ft | 216 kts | 180° |
| 2026-05-06 15:27 | 49.96692 | 8.52874 | 2872 ft | 232 kts | 182° |
| 2026-05-06 15:27 | 49.95094 | 8.52996 | 3940 ft | 229 kts | 180° |
| 2026-05-06 15:28 | 49.93504 | 8.53117 | 4931 ft | 229 kts | 180° |
| 2026-05-06 15:28 | 49.91905 | 8.53232 | 5888 ft | 231 kts | 179° |
| 2026-05-06 15:28 | 49.90293 | 8.53347 | 6813 ft | 233 kts | 180° |
| 2026-05-06 15:28 | 49.88664 | 8.53454 | 7671 ft | 236 kts | 180° |
| 2026-05-06 15:29 | 49.87003 | 8.53562 | 8462 ft | 241 kts | 180° |
| 2026-05-06 15:29 | 49.85316 | 8.53673 | 9264 ft | 245 kts | 180° |
| 2026-05-06 15:29 | 49.83570 | 8.53638 | 9690 ft | 265 kts | 184° |
| 2026-05-06 15:29 | 49.81658 | 8.53460 | 10034 ft | 286 kts | 186° |
| 2026-05-06 15:30 | 49.79596 | 8.53218 | 10282 ft | 308 kts | 186° |
| 2026-05-06 15:30 | 49.77405 | 8.52951 | 10765 ft | 321 kts | 186° |
| 2026-05-06 15:30 | 49.75163 | 8.52686 | 11487 ft | 325 kts | 186° |
| 2026-05-06 15:30 | 49.72890 | 8.52424 | 12183 ft | 330 kts | 185° |
| 2026-05-06 15:31 | 49.70588 | 8.52170 | 12913 ft | 334 kts | 186° |
| 2026-05-06 15:31 | 49.68265 | 8.51922 | 13644 ft | 337 kts | 185° |
| 2026-05-06 15:31 | 49.65908 | 8.51660 | 14299 ft | 340 kts | 186° |
| 2026-05-06 15:32 | 49.61157 | 8.51033 | 15735 ft | 346 kts | 186° |
| 2026-05-06 15:32 | 49.58750 | 8.50700 | 16432 ft | 349 kts | 186° |
| 2026-05-06 15:32 | 49.56318 | 8.50362 | 17065 ft | 353 kts | 186° |
| 2026-05-06 15:32 | 49.53861 | 8.50024 | 17749 ft | 355 kts | 185° |
| 2026-05-06 15:33 | 49.51388 | 8.49688 | 18331 ft | 359 kts | 186° |
| 2026-05-06 15:33 | 49.48900 | 8.49350 | 18936 ft | 360 kts | 186° |
| 2026-05-06 15:33 | 49.46429 | 8.49016 | 19460 ft | 364 kts | 186° |
| 2026-05-06 15:33 | 49.43899 | 8.48678 | 20014 ft | 366 kts | 186° |
| 2026-05-06 15:34 | 49.41350 | 8.48337 | 20579 ft | 369 kts | 185° |
| 2026-05-06 15:34 | 49.38776 | 8.47997 | 21135 ft | 371 kts | 185° |
| 2026-05-06 15:34 | 49.36191 | 8.47658 | 21653 ft | 374 kts | 185° |
| 2026-05-06 15:34 | 49.33592 | 8.47318 | 22226 ft | 376 kts | 186° |
| 2026-05-06 15:35 | 49.30972 | 8.46973 | 22705 ft | 380 kts | 186° |
| 2026-05-06 15:35 | 49.28325 | 8.46621 | 23204 ft | 384 kts | 186° |
| 2026-05-06 15:35 | 49.25649 | 8.46259 | 23601 ft | 388 kts | 186° |
| 2026-05-06 15:35 | 49.22959 | 8.45895 | 24086 ft | 389 kts | 185° |
| 2026-05-06 15:36 | 49.20255 | 8.45534 | 24563 ft | 390 kts | 185° |
| 2026-05-06 15:36 | 49.17540 | 8.45174 | 25039 ft | 392 kts | 185° |
| 2026-05-06 15:36 | 49.14818 | 8.44814 | 25489 ft | 394 kts | 185° |
| 2026-05-06 15:36 | 49.12082 | 8.44453 | 25934 ft | 396 kts | 185° |
| 2026-05-06 15:37 | 49.09330 | 8.44092 | 26398 ft | 398 kts | 185° |
| 2026-05-06 15:37 | 49.06605 | 8.43733 | 26842 ft | 399 kts | 185° |
| 2026-05-06 15:37 | 49.03831 | 8.43367 | 27306 ft | 401 kts | 185° |
| 2026-05-06 15:37 | 49.01046 | 8.43003 | 27765 ft | 403 kts | 185° |
| 2026-05-06 15:38 | 48.98249 | 8.42639 | 28217 ft | 404 kts | 185° |
| 2026-05-06 15:38 | 48.95436 | 8.42270 | 28646 ft | 406 kts | 185° |
| 2026-05-06 15:38 | 48.92616 | 8.41897 | 29086 ft | 408 kts | 185° |
| 2026-05-06 15:38 | 48.89784 | 8.41521 | 29512 ft | 410 kts | 185° |
| 2026-05-06 15:39 | 48.86936 | 8.41147 | 29926 ft | 412 kts | 185° |
| 2026-05-06 15:39 | 48.84078 | 8.40774 | 30279 ft | 413 kts | 185° |
| 2026-05-06 15:39 | 48.81206 | 8.40398 | 30622 ft | 415 kts | 185° |
| 2026-05-06 15:39 | 48.78321 | 8.40022 | 30956 ft | 417 kts | 185° |
| 2026-05-06 15:40 | 48.75429 | 8.39644 | 31287 ft | 418 kts | 186° |
| 2026-05-06 15:40 | 48.72518 | 8.39263 | 31611 ft | 419 kts | 186° |
| 2026-05-06 15:40 | 48.69626 | 8.38888 | 31928 ft | 419 kts | 186° |
| 2026-05-06 15:40 | 48.66726 | 8.38512 | 32353 ft | 418 kts | 186° |
| 2026-05-06 15:41 | 48.63836 | 8.38140 | 32762 ft | 416 kts | 186° |
| 2026-05-06 15:41 | 48.60958 | 8.37772 | 33177 ft | 414 kts | 186° |
| 2026-05-06 15:41 | 48.58089 | 8.37405 | 33596 ft | 413 kts | 186° |
| 2026-05-06 15:41 | 48.55236 | 8.37039 | 33979 ft | 411 kts | 187° |
| 2026-05-06 15:42 | 48.52388 | 8.36673 | 34281 ft | 411 kts | 187° |
| 2026-05-06 15:42 | 48.49537 | 8.36307 | 34528 ft | 411 kts | 187° |
| 2026-05-06 15:42 | 48.46685 | 8.35938 | 34774 ft | 412 kts | 187° |
| 2026-05-06 15:42 | 48.43821 | 8.35562 | 35026 ft | 413 kts | 187° |
| 2026-05-06 15:43 | 48.40953 | 8.35185 | 35284 ft | 414 kts | 187° |
| 2026-05-06 15:43 | 48.38079 | 8.34811 | 35531 ft | 415 kts | 187° |
| 2026-05-06 15:43 | 48.35199 | 8.34440 | 35782 ft | 416 kts | 187° |
| 2026-05-06 15:43 | 48.32313 | 8.34070 | 36024 ft | 416 kts | 187° |
| 2026-05-06 15:44 | 48.29424 | 8.33705 | 36259 ft | 417 kts | 187° |
| 2026-05-06 15:44 | 48.26525 | 8.33337 | 36490 ft | 418 kts | 187° |
| 2026-05-06 15:44 | 48.23625 | 8.32968 | 36688 ft | 419 kts | 187° |
| 2026-05-06 15:44 | 48.20711 | 8.32599 | 36833 ft | 421 kts | 187° |
| 2026-05-06 15:45 | 48.14910 | 8.32152 | 36865 ft | 417 kts | 182° |
| 2026-05-06 15:45 | 48.09120 | 8.32237 | 36869 ft | 416 kts | 182° |
| 2026-05-06 15:46 | 48.03339 | 8.32318 | 36869 ft | 415 kts | 182° |
| 2026-05-06 15:46 | 47.97599 | 8.32402 | 36874 ft | 415 kts | 182° |
| 2026-05-06 15:47 | 47.91814 | 8.32489 | 36879 ft | 416 kts | 182° |
| 2026-05-06 15:47 | 47.86035 | 8.32564 | 36893 ft | 415 kts | 182° |
| 2026-05-06 15:48 | 47.80257 | 8.32640 | 36900 ft | 415 kts | 182° |
| 2026-05-06 15:48 | 47.74485 | 8.32714 | 36903 ft | 415 kts | 182° |
| 2026-05-06 15:49 | 47.68716 | 8.32794 | 36908 ft | 414 kts | 182° |
| 2026-05-06 15:49 | 47.62954 | 8.32878 | 36915 ft | 414 kts | 182° |
| 2026-05-06 15:50 | 47.57198 | 8.32955 | 36915 ft | 413 kts | 182° |
| 2026-05-06 15:50 | 47.51443 | 8.33035 | 36917 ft | 413 kts | 182° |
| 2026-05-06 15:51 | 47.45698 | 8.33115 | 36916 ft | 413 kts | 182° |
| 2026-05-06 15:51 | 47.39963 | 8.33195 | 36908 ft | 412 kts | 182° |
| 2026-05-06 15:52 | 47.34238 | 8.33278 | 36913 ft | 411 kts | 182° |
| 2026-05-06 15:52 | 47.28524 | 8.33431 | 36909 ft | 411 kts | 180° |
| 2026-05-06 15:53 | 47.25662 | 8.33724 | 36798 ft | 413 kts | 178° |
| 2026-05-06 15:53 | 47.22847 | 8.34128 | 36540 ft | 412 kts | 178° |
| 2026-05-06 15:53 | 47.20000 | 8.34594 | 36283 ft | 412 kts | 177° |
| 2026-05-06 15:53 | 47.17158 | 8.35064 | 36031 ft | 411 kts | 177° |
| 2026-05-06 15:54 | 47.14314 | 8.35511 | 35783 ft | 410 kts | 178° |
| 2026-05-06 15:54 | 47.11472 | 8.35929 | 35532 ft | 410 kts | 178° |
| 2026-05-06 15:54 | 47.08638 | 8.36324 | 35311 ft | 409 kts | 178° |
| 2026-05-06 15:54 | 47.05817 | 8.36705 | 35057 ft | 404 kts | 178° |
| 2026-05-06 15:55 | 47.03037 | 8.37078 | 34646 ft | 399 kts | 179° |
| 2026-05-06 15:55 | 47.00285 | 8.37444 | 34216 ft | 395 kts | 179° |
| 2026-05-06 15:55 | 46.97558 | 8.37805 | 33755 ft | 392 kts | 180° |
| 2026-05-06 15:55 | 46.94859 | 8.38164 | 33306 ft | 386 kts | 180° |
| 2026-05-06 15:56 | 46.92213 | 8.38521 | 32891 ft | 378 kts | 180° |
| 2026-05-06 15:56 | 46.89613 | 8.38874 | 32459 ft | 372 kts | 180° |
| 2026-05-06 15:56 | 46.87050 | 8.39225 | 32041 ft | 367 kts | 180° |
| 2026-05-06 15:56 | 46.84525 | 8.39572 | 31604 ft | 361 kts | 180° |
| 2026-05-06 15:57 | 46.82038 | 8.39917 | 31218 ft | 356 kts | 180° |
| 2026-05-06 15:57 | 46.79593 | 8.40253 | 30824 ft | 350 kts | 180° |
| 2026-05-06 15:57 | 46.77186 | 8.40579 | 30441 ft | 344 kts | 180° |
| 2026-05-06 15:57 | 46.74818 | 8.40896 | 30086 ft | 339 kts | 180° |
| 2026-05-06 15:58 | 46.72481 | 8.41206 | 29680 ft | 335 kts | 180° |
| 2026-05-06 15:58 | 46.70187 | 8.41511 | 29319 ft | 328 kts | 180° |
| 2026-05-06 15:58 | 46.67939 | 8.41811 | 28984 ft | 321 kts | 180° |
| 2026-05-06 15:58 | 46.65741 | 8.42105 | 28642 ft | 315 kts | 180° |
| 2026-05-06 15:59 | 46.63558 | 8.42398 | 28313 ft | 315 kts | 180° |
| 2026-05-06 15:59 | 46.61378 | 8.42691 | 27972 ft | 314 kts | 180° |
| 2026-05-06 15:59 | 46.59199 | 8.42978 | 27665 ft | 314 kts | 180° |
| 2026-05-06 15:59 | 46.57025 | 8.43265 | 27339 ft | 314 kts | 180° |
| 2026-05-06 16:00 | 46.54855 | 8.43552 | 27015 ft | 313 kts | 179° |
| 2026-05-06 16:00 | 46.52687 | 8.43841 | 26701 ft | 313 kts | 179° |
| 2026-05-06 16:00 | 46.50522 | 8.44131 | 26379 ft | 312 kts | 179° |
| 2026-05-06 16:00 | 46.48363 | 8.44421 | 26046 ft | 312 kts | 179° |
| 2026-05-06 16:01 | 46.46204 | 8.44711 | 25715 ft | 311 kts | 179° |
| 2026-05-06 16:01 | 46.44047 | 8.44999 | 25386 ft | 311 kts | 178° |
| 2026-05-06 16:01 | 46.41895 | 8.45286 | 25045 ft | 311 kts | 178° |
| 2026-05-06 16:01 | 46.39744 | 8.45573 | 24674 ft | 309 kts | 178° |
| 2026-05-06 16:02 | 46.37613 | 8.45860 | 24351 ft | 306 kts | 179° |
| 2026-05-06 16:02 | 46.35498 | 8.46141 | 24003 ft | 304 kts | 178° |
| 2026-05-06 16:02 | 46.33391 | 8.46418 | 23650 ft | 304 kts | 178° |
| 2026-05-06 16:02 | 46.31288 | 8.46694 | 23268 ft | 303 kts | 178° |
| 2026-05-06 16:03 | 46.29195 | 8.46970 | 22891 ft | 302 kts | 178° |
| 2026-05-06 16:03 | 46.27107 | 8.47247 | 22532 ft | 301 kts | 178° |
| 2026-05-06 16:03 | 46.25024 | 8.47536 | 22154 ft | 300 kts | 178° |
| 2026-05-06 16:03 | 46.22962 | 8.48010 | 21963 ft | 305 kts | 169° |
| 2026-05-06 16:04 | 46.20826 | 8.48814 | 21636 ft | 326 kts | 168° |
| 2026-05-06 16:04 | 46.18614 | 8.49666 | 21243 ft | 330 kts | 168° |
| 2026-05-06 16:04 | 46.16398 | 8.50543 | 20847 ft | 331 kts | 168° |
| 2026-05-06 16:04 | 46.14186 | 8.51426 | 20449 ft | 328 kts | 168° |
| 2026-05-06 16:05 | 46.11993 | 8.52300 | 20051 ft | 326 kts | 168° |
| 2026-05-06 16:05 | 46.09814 | 8.53162 | 19653 ft | 324 kts | 168° |
| 2026-05-06 16:05 | 46.07637 | 8.54018 | 19270 ft | 324 kts | 168° |
| 2026-05-06 16:05 | 46.05499 | 8.54854 | 18936 ft | 321 kts | 168° |
| 2026-05-06 16:06 | 46.03347 | 8.55694 | 18871 ft | 321 kts | 168° |
| 2026-05-06 16:06 | 46.01185 | 8.56533 | 18875 ft | 323 kts | 168° |
| 2026-05-06 16:06 | 45.99014 | 8.57373 | 18686 ft | 324 kts | 168° |
| 2026-05-06 16:06 | 45.96820 | 8.58219 | 18176 ft | 323 kts | 168° |
| 2026-05-06 16:07 | 45.94673 | 8.59051 | 17752 ft | 318 kts | 168° |
| 2026-05-06 16:07 | 45.92549 | 8.59877 | 17241 ft | 315 kts | 168° |
| 2026-05-06 16:07 | 45.90464 | 8.60821 | 16701 ft | 315 kts | 159° |
| 2026-05-06 16:07 | 45.88553 | 8.62371 | 16182 ft | 317 kts | 147° |
| 2026-05-06 16:08 | 45.86829 | 8.64350 | 15665 ft | 317 kts | 144° |
| 2026-05-06 16:08 | 45.85119 | 8.66344 | 15162 ft | 316 kts | 144° |
| 2026-05-06 16:08 | 45.83418 | 8.68323 | 14657 ft | 314 kts | 144° |
| 2026-05-06 16:08 | 45.81719 | 8.70292 | 14173 ft | 313 kts | 144° |
| 2026-05-06 16:09 | 45.80033 | 8.72242 | 13714 ft | 311 kts | 144° |
| 2026-05-06 16:09 | 45.78361 | 8.74176 | 13359 ft | 304 kts | 144° |
| 2026-05-06 16:09 | 45.76731 | 8.76043 | 13030 ft | 297 kts | 148° |
| 2026-05-06 16:09 | 45.74979 | 8.77536 | 12616 ft | 291 kts | 155° |
| 2026-05-06 16:10 | 45.73196 | 8.78898 | 12197 ft | 290 kts | 155° |
| 2026-05-06 16:10 | 45.71423 | 8.80256 | 11772 ft | 288 kts | 155° |
| 2026-05-06 16:10 | 45.69660 | 8.81609 | 11313 ft | 287 kts | 155° |
| 2026-05-06 16:10 | 45.67907 | 8.82956 | 10904 ft | 286 kts | 155° |
| 2026-05-06 16:11 | 45.66749 | 8.83844 | 10642 ft | 285 kts | 155° |
| 2026-05-06 16:11 | 45.64441 | 8.85615 | 10133 ft | 283 kts | 155° |
| 2026-05-06 16:11 | 45.62710 | 8.86943 | 9751 ft | 282 kts | 155° |
| 2026-05-06 16:11 | 45.60894 | 8.87920 | 9319 ft | 277 kts | 170° |
| 2026-05-06 16:12 | 45.59008 | 8.88439 | 8932 ft | 276 kts | 171° |
| 2026-05-06 16:12 | 45.57131 | 8.88949 | 8517 ft | 274 kts | 171° |
| 2026-05-06 16:12 | 45.55870 | 8.89293 | 8234 ft | 273 kts | 171° |
| 2026-05-06 16:12 | 45.54037 | 8.89792 | 7836 ft | 271 kts | 171° |
| 2026-05-06 16:13 | 45.52187 | 8.90297 | 7449 ft | 269 kts | 171° |
| 2026-05-06 16:13 | 45.50353 | 8.90798 | 7049 ft | 267 kts | 171° |
| 2026-05-06 16:13 | 45.48531 | 8.91294 | 6649 ft | 266 kts | 171° |
| 2026-05-06 16:13 | 45.46715 | 8.91788 | 6248 ft | 265 kts | 170° |
| 2026-05-06 16:14 | 45.44910 | 8.92280 | 5877 ft | 263 kts | 171° |
| 2026-05-06 16:14 | 45.43124 | 8.92767 | 5496 ft | 260 kts | 170° |
| 2026-05-06 16:14 | 45.41349 | 8.93249 | 5158 ft | 259 kts | 170° |
| 2026-05-06 16:14 | 45.39589 | 8.93720 | 4773 ft | 256 kts | 172° |
| 2026-05-06 16:15 | 45.37840 | 8.93521 | 4390 ft | 253 kts | 200° |
| 2026-05-06 16:15 | 45.36429 | 8.92107 | 4182 ft | 248 kts | 230° |
| 2026-05-06 16:15 | 45.35659 | 8.89982 | 4108 ft | 237 kts | 250° |
| 2026-05-06 16:15 | 45.35390 | 8.87731 | 4033 ft | 226 kts | 267° |
| 2026-05-06 16:16 | 45.35571 | 8.85529 | 3967 ft | 231 kts | 282° |
| 2026-05-06 16:16 | 45.36199 | 8.83391 | 3899 ft | 238 kts | 299° |
| 2026-05-06 16:16 | 45.37242 | 8.81584 | 3830 ft | 242 kts | 316° |
| 2026-05-06 16:16 | 45.38644 | 8.80270 | 3752 ft | 243 kts | 335° |
| 2026-05-06 16:17 | 45.40228 | 8.79616 | 3683 ft | 229 kts | 349° |
| 2026-05-06 16:17 | 45.41729 | 8.79207 | 3628 ft | 211 kts | 349° |
| 2026-05-06 16:17 | 45.43151 | 8.78817 | 3551 ft | 206 kts | 348° |
| 2026-05-06 16:17 | 45.44545 | 8.78434 | 3382 ft | 200 kts | 348° |
| 2026-05-06 16:18 | 45.45868 | 8.78071 | 3299 ft | 190 kts | 348° |
| 2026-05-06 16:18 | 45.47155 | 8.77718 | 3218 ft | 188 kts | 348° |
| 2026-05-06 16:18 | 45.48434 | 8.77366 | 3161 ft | 187 kts | 349° |
| 2026-05-06 16:18 | 45.49711 | 8.77016 | 3029 ft | 187 kts | 349° |
| 2026-05-06 16:19 | 45.50974 | 8.76669 | 2810 ft | 183 kts | 349° |
| 2026-05-06 16:19 | 45.52218 | 8.76327 | 2571 ft | 181 kts | 349° |
| 2026-05-06 16:19 | 45.53417 | 8.75997 | 2337 ft | 170 kts | 351° |
| 2026-05-06 16:19 | 45.54538 | 8.75689 | 2136 ft | 156 kts | 350° |
| 2026-05-06 16:20 | 45.55564 | 8.75406 | 1917 ft | 144 kts | 352° |
| 2026-05-06 16:20 | 45.56534 | 8.75139 | 1747 ft | 140 kts | 352° |
| 2026-05-06 16:20 | 45.57466 | 8.74882 | 1569 ft | 137 kts | 351° |
| 2026-05-06 16:20 | 45.58396 | 8.74626 | 1369 ft | 135 kts | 352° |
| 2026-05-06 16:21 | 45.59310 | 8.74375 | 1187 ft | 134 kts | 349° |
| 2026-05-06 16:21 | 45.60222 | 8.74130 | 1060 ft | 132 kts | 349° |
| 2026-05-06 16:21 | 45.61120 | 8.73876 | 869 ft | 131 kts | 349° |
| 2026-05-06 16:21 | 45.62006 | 8.73631 | 754 ft | 124 kts | 350° |
| 2026-05-06 16:22 | 45.62748 | 8.73425 | 742 ft | 89 kts | 349° |
| 2026-05-06 16:22 | 45.63195 | 8.73303 | 745 ft | 49 kts | 349° |
| 2026-05-06 16:22 | 45.63489 | 8.73217 | 745 ft | 37 kts | 347° |
| 2026-05-06 16:22 | 45.63689 | 8.73096 | 747 ft | 27 kts | 326° |
| 2026-05-06 16:23 | 45.63817 | 8.72907 | 749 ft | 27 kts | 304° |
| 2026-05-06 16:23 | 45.63902 | 8.72731 | 749 ft | 13 kts | 303° |
| 2026-05-06 16:23 | 45.63926 | 8.72680 | 752 ft | 3 kts | 303° |
| 2026-05-06 16:23 | 45.63943 | 8.72639 | 748 ft | 6 kts | 298° |
| 2026-05-06 16:24 | 45.63952 | 8.72537 | 751 ft | 15 kts | 263° |
| 2026-05-06 16:24 | 45.63930 | 8.72359 | 752 ft | 20 kts | 259° |
| 2026-05-06 16:24 | 45.63917 | 8.72144 | 747 ft | 24 kts | 268° |
| 2026-05-06 16:24 | 45.63894 | 8.71903 | 750 ft | 22 kts | 243° |
| 2026-05-06 16:25 | 45.63768 | 8.71829 | 751 ft | 22 kts | 166° |
| 2026-05-06 16:25 | 45.63613 | 8.71876 | 749 ft | 24 kts | 169° |
| 2026-05-06 16:25 | 45.63444 | 8.71923 | 751 ft | 23 kts | 169° |
| 2026-05-06 16:25 | 45.63337 | 8.71940 | 752 ft | 11 kts | 195° |
| 2026-05-06 16:26 | 45.63300 | 8.71852 | 748 ft | 12 kts | 259° |
| 2026-05-06 16:26 | 45.63284 | 8.71725 | 751 ft | 12 kts | 256° |
| 2026-05-06 16:26 | 45.63229 | 8.71672 | 752 ft | 10 kts | 179° |
| 2026-05-06 16:26 | 45.63144 | 8.71693 | 751 ft | 15 kts | 168° |
| 2026-05-06 16:27 | 45.63021 | 8.71727 | 750 ft | 20 kts | 169° |
| 2026-05-06 16:27 | 45.62892 | 8.71764 | 749 ft | 18 kts | 171° |
| 2026-05-06 16:27 | 45.62776 | 8.71794 | 751 ft | 17 kts | 170° |
| 2026-05-06 16:27 | 45.62647 | 8.71830 | 751 ft | 18 kts | 169° |
| 2026-05-06 16:28 | 45.62549 | 8.71857 | 751 ft | 8 kts | 170° |
| 2026-05-06 16:28 | 45.62517 | 8.71828 | 751 ft | 5 kts | 248° |
| 2026-05-06 16:28 | 45.62510 | 8.71785 | 748 ft | 4 kts | 258° |
| 2026-05-06 16:28 | 45.62507 | 8.71764 | 749 ft | 1 kts | 259° |
| 2026-05-06 16:29 | 45.62506 | 8.71758 | 751 ft | 1 kts | 259° |
| 2026-05-06 16:29 | 45.62506 | 8.71756 | 751 ft | 0 kts | 259° |